sensor_id;sensor_type;location;lat;lon;timestamp;temperature;humidity
22235;DHT22;11286;45.596;5.284;2023-05-29T00:01:20;18.40;99.90
22235;DHT22;11286;45.596;5.284;2023-05-29T00:03:49;18.50;99.90
22235;DHT22;11286;45.596;5.284;2023-05-29T00:06:15;18.80;99.90
22235;DHT22;11286;45.596;5.284;2023-05-29T00:08:40;18.60;99.90
22235;DHT22;11286;45.596;5.284;2023-05-29T00:11:06;18.30;99.90
22235;DHT22;11286;45.596;5.284;2023-05-29T00:13:32;18.10;99.90
22235;DHT22;11286;45.596;5.284;2023-05-29T00:15:58;18.20;99.90
22235;DHT22;11286;45.596;5.284;2023-05-29T00:18:26;18.00;99.90
22235;DHT22;11286;45.596;5.284;2023-05-29T00:20:52;18.00;99.90
22235;DHT22;11286;45.596;5.284;2023-05-29T00:23:18;18.10;99.90
22235;DHT22;11286;45.596;5.284;2023-05-29T00:25:44;18.00;99.90
22235;DHT22;11286;45.596;5.284;2023-05-29T00:28:10;17.90;99.90
22235;DHT22;11286;45.596;5.284;2023-05-29T00:30:37;18.00;99.90
22235;DHT22;11286;45.596;5.284;2023-05-29T00:33:03;18.10;99.90
22235;DHT22;11286;45.596;5.284;2023-05-29T00:35:28;18.20;99.90
22235;DHT22;11286;45.596;5.284;2023-05-29T00:37:55;18.10;99.90
22235;DHT22;11286;45.596;5.284;2023-05-29T00:40:20;18.40;99.90
22235;DHT22;11286;45.596;5.284;2023-05-29T00:42:46;18.40;99.90
22235;DHT22;11286;45.596;5.284;2023-05-29T00:45:12;18.40;99.90
22235;DHT22;11286;45.596;5.284;2023-05-29T00:47:40;18.20;99.90
22235;DHT22;11286;45.596;5.284;2023-05-29T00:50:08;18.30;99.90
22235;DHT22;11286;45.596;5.284;2023-05-29T00:52:37;18.30;99.90
22235;DHT22;11286;45.596;5.284;2023-05-29T00:55:03;18.50;99.90
22235;DHT22;11286;45.596;5.284;2023-05-29T00:57:30;18.30;99.90
22235;DHT22;11286;45.596;5.284;2023-05-29T00:59:58;18.40;99.90
22235;DHT22;11286;45.596;5.284;2023-05-29T01:02:25;18.10;99.90
22235;DHT22;11286;45.596;5.284;2023-05-29T01:04:51;18.10;99.90
22235;DHT22;11286;45.596;5.284;2023-05-29T01:07:20;18.20;99.90
22235;DHT22;11286;45.596;5.284;2023-05-29T01:09:45;18.30;99.90
22235;DHT22;11286;45.596;5.284;2023-05-29T01:12:36;18.40;99.90
22235;DHT22;11286;45.596;5.284;2023-05-29T01:15:57;18.30;99.90
22235;DHT22;11286;45.596;5.284;2023-05-29T01:26:37;18.60;99.90
22235;DHT22;11286;45.596;5.284;2023-05-29T01:29:07;18.60;99.90
22235;DHT22;11286;45.596;5.284;2023-05-29T01:31:34;18.60;99.90
22235;DHT22;11286;45.596;5.284;2023-05-29T01:34:01;18.60;99.90
22235;DHT22;11286;45.596;5.284;2023-05-29T01:36:27;18.60;99.90
22235;DHT22;11286;45.596;5.284;2023-05-29T01:38:55;18.50;99.90
22235;DHT22;11286;45.596;5.284;2023-05-29T01:41:23;18.40;99.90
22235;DHT22;11286;45.596;5.284;2023-05-29T01:43:49;18.40;99.90
22235;DHT22;11286;45.596;5.284;2023-05-29T01:46:16;18.40;99.90
22235;DHT22;11286;45.596;5.284;2023-05-29T01:48:43;17.90;99.90
22235;DHT22;11286;45.596;5.284;2023-05-29T01:51:09;17.60;99.90
22235;DHT22;11286;45.596;5.284;2023-05-29T01:53:36;17.40;99.90
22235;DHT22;11286;45.596;5.284;2023-05-29T01:56:03;17.60;99.90
22235;DHT22;11286;45.596;5.284;2023-05-29T01:58:30;17.70;99.90
22235;DHT22;11286;45.596;5.284;2023-05-29T02:00:57;17.70;99.90
22235;DHT22;11286;45.596;5.284;2023-05-29T02:03:22;17.60;99.90
22235;DHT22;11286;45.596;5.284;2023-05-29T02:05:49;17.40;99.90
22235;DHT22;11286;45.596;5.284;2023-05-29T02:08:15;17.40;99.90
22235;DHT22;11286;45.596;5.284;2023-05-29T02:10:41;17.60;99.90
22235;DHT22;11286;45.596;5.284;2023-05-29T02:13:06;17.70;99.90
22235;DHT22;11286;45.596;5.284;2023-05-29T02:15:32;17.80;99.90
22235;DHT22;11286;45.596;5.284;2023-05-29T02:17:57;17.90;99.90
22235;DHT22;11286;45.596;5.284;2023-05-29T02:20:26;17.80;99.90
22235;DHT22;11286;45.596;5.284;2023-05-29T02:22:52;17.90;99.90
22235;DHT22;11286;45.596;5.284;2023-05-29T02:25:18;17.90;99.90
22235;DHT22;11286;45.596;5.284;2023-05-29T02:27:44;17.90;99.90
22235;DHT22;11286;45.596;5.284;2023-05-29T02:30:09;17.90;99.90
22235;DHT22;11286;45.596;5.284;2023-05-29T02:32:36;17.80;99.90
22235;DHT22;11286;45.596;5.284;2023-05-29T02:35:02;17.80;99.90
22235;DHT22;11286;45.596;5.284;2023-05-29T02:37:27;17.70;99.90
22235;DHT22;11286;45.596;5.284;2023-05-29T02:39:53;17.70;99.90
22235;DHT22;11286;45.596;5.284;2023-05-29T02:42:19;17.60;99.90
22235;DHT22;11286;45.596;5.284;2023-05-29T02:44:44;17.60;99.90
22235;DHT22;11286;45.596;5.284;2023-05-29T02:47:10;17.60;99.90
22235;DHT22;11286;45.596;5.284;2023-05-29T02:49:36;17.60;99.90
22235;DHT22;11286;45.596;5.284;2023-05-29T02:52:01;17.70;99.90
22235;DHT22;11286;45.596;5.284;2023-05-29T02:54:27;17.70;99.90
22235;DHT22;11286;45.596;5.284;2023-05-29T02:56:53;17.70;99.90
22235;DHT22;11286;45.596;5.284;2023-05-29T02:59:18;17.70;99.90
22235;DHT22;11286;45.596;5.284;2023-05-29T03:01:44;17.80;99.90
22235;DHT22;11286;45.596;5.284;2023-05-29T03:04:10;17.70;99.90
22235;DHT22;11286;45.596;5.284;2023-05-29T03:06:36;17.80;99.90
22235;DHT22;11286;45.596;5.284;2023-05-29T03:09:03;17.70;99.90
22235;DHT22;11286;45.596;5.284;2023-05-29T03:11:31;17.70;99.90
22235;DHT22;11286;45.596;5.284;2023-05-29T03:13:56;17.60;99.90
22235;DHT22;11286;45.596;5.284;2023-05-29T03:16:22;17.30;99.90
22235;DHT22;11286;45.596;5.284;2023-05-29T03:18:48;17.00;99.90
22235;DHT22;11286;45.596;5.284;2023-05-29T03:21:13;16.80;99.90
22235;DHT22;11286;45.596;5.284;2023-05-29T03:23:39;16.90;99.90
22235;DHT22;11286;45.596;5.284;2023-05-29T03:26:05;16.90;99.90
22235;DHT22;11286;45.596;5.284;2023-05-29T03:28:31;17.00;99.90
22235;DHT22;11286;45.596;5.284;2023-05-29T03:30:57;17.10;99.90
22235;DHT22;11286;45.596;5.284;2023-05-29T03:33:22;17.10;99.90
22235;DHT22;11286;45.596;5.284;2023-05-29T03:35:48;17.10;99.90
22235;DHT22;11286;45.596;5.284;2023-05-29T03:38:14;17.20;99.90
22235;DHT22;11286;45.596;5.284;2023-05-29T03:40:40;17.20;99.90
22235;DHT22;11286;45.596;5.284;2023-05-29T03:43:05;17.30;99.90
22235;DHT22;11286;45.596;5.284;2023-05-29T03:45:31;17.30;99.90
22235;DHT22;11286;45.596;5.284;2023-05-29T03:47:57;17.30;99.90
22235;DHT22;11286;45.596;5.284;2023-05-29T03:50:22;17.30;99.90
22235;DHT22;11286;45.596;5.284;2023-05-29T03:52:48;17.20;99.90
22235;DHT22;11286;45.596;5.284;2023-05-29T03:55:14;17.10;99.90
22235;DHT22;11286;45.596;5.284;2023-05-29T03:57:40;17.10;99.90
22235;DHT22;11286;45.596;5.284;2023-05-29T04:00:10;17.10;99.90
22235;DHT22;11286;45.596;5.284;2023-05-29T04:02:40;17.20;99.90
22235;DHT22;11286;45.596;5.284;2023-05-29T04:05:07;17.20;99.90
22235;DHT22;11286;45.596;5.284;2023-05-29T04:07:37;16.90;99.90
22235;DHT22;11286;45.596;5.284;2023-05-29T04:10:04;16.80;99.90
22235;DHT22;11286;45.596;5.284;2023-05-29T04:12:30;17.00;99.90
22235;DHT22;11286;45.596;5.284;2023-05-29T04:14:57;17.00;99.90
22235;DHT22;11286;45.596;5.284;2023-05-29T04:17:22;17.10;99.90
22235;DHT22;11286;45.596;5.284;2023-05-29T04:19:48;17.10;99.90
22235;DHT22;11286;45.596;5.284;2023-05-29T04:22:14;17.10;99.90
22235;DHT22;11286;45.596;5.284;2023-05-29T04:24:39;17.10;99.90
22235;DHT22;11286;45.596;5.284;2023-05-29T04:27:09;17.10;99.90
22235;DHT22;11286;45.596;5.284;2023-05-29T04:29:39;17.10;99.90
22235;DHT22;11286;45.596;5.284;2023-05-29T04:32:06;17.20;99.90
22235;DHT22;11286;45.596;5.284;2023-05-29T04:34:33;17.20;99.90
22235;DHT22;11286;45.596;5.284;2023-05-29T04:36:59;17.20;99.90
22235;DHT22;11286;45.596;5.284;2023-05-29T04:39:25;17.30;99.90
22235;DHT22;11286;45.596;5.284;2023-05-29T04:41:51;17.10;99.90
22235;DHT22;11286;45.596;5.284;2023-05-29T04:44:17;17.10;99.90
22235;DHT22;11286;45.596;5.284;2023-05-29T04:46:43;17.10;99.90
22235;DHT22;11286;45.596;5.284;2023-05-29T04:49:11;17.20;99.90
22235;DHT22;11286;45.596;5.284;2023-05-29T04:51:38;17.10;99.90
22235;DHT22;11286;45.596;5.284;2023-05-29T04:54:06;17.20;99.90
22235;DHT22;11286;45.596;5.284;2023-05-29T04:56:32;17.10;99.90
22235;DHT22;11286;45.596;5.284;2023-05-29T04:58:58;17.00;99.90
22235;DHT22;11286;45.596;5.284;2023-05-29T05:01:26;16.90;99.90
22235;DHT22;11286;45.596;5.284;2023-05-29T05:03:52;16.90;99.90
22235;DHT22;11286;45.596;5.284;2023-05-29T05:06:21;16.80;99.90
22235;DHT22;11286;45.596;5.284;2023-05-29T05:08:47;16.90;99.90
22235;DHT22;11286;45.596;5.284;2023-05-29T05:11:13;17.00;99.90
22235;DHT22;11286;45.596;5.284;2023-05-29T05:13:39;17.20;99.90
22235;DHT22;11286;45.596;5.284;2023-05-29T05:16:05;17.20;99.90
22235;DHT22;11286;45.596;5.284;2023-05-29T05:18:31;17.30;99.90
22235;DHT22;11286;45.596;5.284;2023-05-29T05:20:56;17.40;99.90
22235;DHT22;11286;45.596;5.284;2023-05-29T05:23:22;17.50;99.90
22235;DHT22;11286;45.596;5.284;2023-05-29T05:25:47;17.50;99.90
22235;DHT22;11286;45.596;5.284;2023-05-29T05:28:13;17.50;99.90
22235;DHT22;11286;45.596;5.284;2023-05-29T05:30:39;17.60;99.90
22235;DHT22;11286;45.596;5.284;2023-05-29T05:33:04;17.60;99.90
22235;DHT22;11286;45.596;5.284;2023-05-29T05:35:30;17.70;99.90
22235;DHT22;11286;45.596;5.284;2023-05-29T05:37:55;17.70;99.90
22235;DHT22;11286;45.596;5.284;2023-05-29T05:40:25;17.80;99.90
22235;DHT22;11286;45.596;5.284;2023-05-29T05:42:51;17.90;99.90
22235;DHT22;11286;45.596;5.284;2023-05-29T05:45:17;18.00;99.90
22235;DHT22;11286;45.596;5.284;2023-05-29T05:47:42;18.10;99.90
22235;DHT22;11286;45.596;5.284;2023-05-29T05:50:08;18.20;99.90
22235;DHT22;11286;45.596;5.284;2023-05-29T05:52:34;18.20;99.90
22235;DHT22;11286;45.596;5.284;2023-05-29T05:55:00;18.20;99.90
22235;DHT22;11286;45.596;5.284;2023-05-29T05:57:26;18.30;99.90
22235;DHT22;11286;45.596;5.284;2023-05-29T05:59:52;18.30;99.90
22235;DHT22;11286;45.596;5.284;2023-05-29T06:02:18;18.30;99.90
22235;DHT22;11286;45.596;5.284;2023-05-29T06:04:44;18.30;99.90
22235;DHT22;11286;45.596;5.284;2023-05-29T06:07:09;18.40;99.90
22235;DHT22;11286;45.596;5.284;2023-05-29T06:09:35;18.50;99.90
22235;DHT22;11286;45.596;5.284;2023-05-29T06:12:01;18.60;99.90
22235;DHT22;11286;45.596;5.284;2023-05-29T06:14:27;18.50;99.90
22235;DHT22;11286;45.596;5.284;2023-05-29T06:16:52;18.80;99.90
22235;DHT22;11286;45.596;5.284;2023-05-29T06:19:19;18.70;99.90
22235;DHT22;11286;45.596;5.284;2023-05-29T06:21:44;18.80;99.90
22235;DHT22;11286;45.596;5.284;2023-05-29T06:24:10;18.80;99.90
22235;DHT22;11286;45.596;5.284;2023-05-29T06:26:36;18.60;99.90
22235;DHT22;11286;45.596;5.284;2023-05-29T06:29:02;18.60;99.90
22235;DHT22;11286;45.596;5.284;2023-05-29T06:31:28;18.80;99.90
22235;DHT22;11286;45.596;5.284;2023-05-29T06:33:54;19.10;99.90
22235;DHT22;11286;45.596;5.284;2023-05-29T06:36:20;19.70;99.90
22235;DHT22;11286;45.596;5.284;2023-05-29T06:38:50;19.30;99.90
22235;DHT22;11286;45.596;5.284;2023-05-29T06:41:16;19.40;99.90
22235;DHT22;11286;45.596;5.284;2023-05-29T06:43:42;19.40;99.90
22235;DHT22;11286;45.596;5.284;2023-05-29T06:46:08;19.50;99.90
22235;DHT22;11286;45.596;5.284;2023-05-29T06:48:34;19.60;99.90
22235;DHT22;11286;45.596;5.284;2023-05-29T06:51:01;19.70;99.90
22235;DHT22;11286;45.596;5.284;2023-05-29T06:53:26;19.80;99.90
22235;DHT22;11286;45.596;5.284;2023-05-29T06:55:53;19.80;99.90
22235;DHT22;11286;45.596;5.284;2023-05-29T06:58:18;19.80;99.90
22235;DHT22;11286;45.596;5.284;2023-05-29T07:00:44;19.90;99.90
22235;DHT22;11286;45.596;5.284;2023-05-29T07:03:10;19.90;99.90
22235;DHT22;11286;45.596;5.284;2023-05-29T07:05:36;19.90;99.90
22235;DHT22;11286;45.596;5.284;2023-05-29T07:08:01;19.90;99.90
22235;DHT22;11286;45.596;5.284;2023-05-29T07:10:27;19.90;99.90
22235;DHT22;11286;45.596;5.284;2023-05-29T07:12:52;19.90;99.90
22235;DHT22;11286;45.596;5.284;2023-05-29T07:15:18;20.00;99.90
22235;DHT22;11286;45.596;5.284;2023-05-29T07:17:44;20.10;99.90
22235;DHT22;11286;45.596;5.284;2023-05-29T07:20:10;20.10;99.90
22235;DHT22;11286;45.596;5.284;2023-05-29T07:22:36;20.10;99.90
22235;DHT22;11286;45.596;5.284;2023-05-29T07:25:02;20.10;99.90
22235;DHT22;11286;45.596;5.284;2023-05-29T07:27:29;20.20;99.90
22235;DHT22;11286;45.596;5.284;2023-05-29T07:29:54;20.20;99.90
22235;DHT22;11286;45.596;5.284;2023-05-29T07:32:20;20.20;99.90
22235;DHT22;11286;45.596;5.284;2023-05-29T07:34:47;20.10;99.90
22235;DHT22;11286;45.596;5.284;2023-05-29T07:37:15;20.20;99.90
22235;DHT22;11286;45.596;5.284;2023-05-29T07:39:41;20.20;99.90
22235;DHT22;11286;45.596;5.284;2023-05-29T07:42:07;20.40;99.90
22235;DHT22;11286;45.596;5.284;2023-05-29T07:44:33;20.50;99.90
22235;DHT22;11286;45.596;5.284;2023-05-29T07:46:59;20.60;99.90
22235;DHT22;11286;45.596;5.284;2023-05-29T07:49:25;20.60;99.90
22235;DHT22;11286;45.596;5.284;2023-05-29T07:51:50;20.60;99.90
22235;DHT22;11286;45.596;5.284;2023-05-29T07:54:16;20.60;99.90
22235;DHT22;11286;45.596;5.284;2023-05-29T07:56:46;20.70;99.90
22235;DHT22;11286;45.596;5.284;2023-05-29T07:59:12;20.80;99.90
22235;DHT22;11286;45.596;5.284;2023-05-29T08:01:37;20.90;99.90
22235;DHT22;11286;45.596;5.284;2023-05-29T08:04:04;21.00;99.90
22235;DHT22;11286;45.596;5.284;2023-05-29T08:06:33;21.00;99.90
22235;DHT22;11286;45.596;5.284;2023-05-29T08:08:59;21.10;99.90
22235;DHT22;11286;45.596;5.284;2023-05-29T08:11:25;21.10;99.90
22235;DHT22;11286;45.596;5.284;2023-05-29T08:13:50;21.20;99.90
22235;DHT22;11286;45.596;5.284;2023-05-29T08:16:16;21.20;99.90
22235;DHT22;11286;45.596;5.284;2023-05-29T08:18:42;21.20;99.90
22235;DHT22;11286;45.596;5.284;2023-05-29T08:21:08;21.30;99.90
22235;DHT22;11286;45.596;5.284;2023-05-29T08:23:35;21.30;99.90
22235;DHT22;11286;45.596;5.284;2023-05-29T08:26:01;21.50;99.90
22235;DHT22;11286;45.596;5.284;2023-05-29T08:28:28;21.50;99.90
22235;DHT22;11286;45.596;5.284;2023-05-29T08:30:54;21.70;99.90
22235;DHT22;11286;45.596;5.284;2023-05-29T08:33:19;21.60;99.90
22235;DHT22;11286;45.596;5.284;2023-05-29T08:35:45;21.60;99.90
22235;DHT22;11286;45.596;5.284;2023-05-29T08:38:11;21.60;99.90
22235;DHT22;11286;45.596;5.284;2023-05-29T08:40:37;21.70;99.90
22235;DHT22;11286;45.596;5.284;2023-05-29T08:43:19;21.70;99.90
22235;DHT22;11286;45.596;5.284;2023-05-29T08:45:47;21.80;99.90
22235;DHT22;11286;45.596;5.284;2023-05-29T08:48:16;22.00;99.90
22235;DHT22;11286;45.596;5.284;2023-05-29T08:50:45;22.20;99.90
22235;DHT22;11286;45.596;5.284;2023-05-29T08:53:16;22.20;99.90
22235;DHT22;11286;45.596;5.284;2023-05-29T08:55:45;22.30;99.90
22235;DHT22;11286;45.596;5.284;2023-05-29T08:58:13;22.30;99.90
22235;DHT22;11286;45.596;5.284;2023-05-29T09:00:39;22.30;99.90
22235;DHT22;11286;45.596;5.284;2023-05-29T09:03:06;22.30;99.90
22235;DHT22;11286;45.596;5.284;2023-05-29T09:05:32;22.40;99.90
22235;DHT22;11286;45.596;5.284;2023-05-29T09:07:59;22.40;99.90
22235;DHT22;11286;45.596;5.284;2023-05-29T09:10:25;22.60;99.90
22235;DHT22;11286;45.596;5.284;2023-05-29T09:12:53;22.80;99.90
22235;DHT22;11286;45.596;5.284;2023-05-29T09:15:23;22.70;99.90
22235;DHT22;11286;45.596;5.284;2023-05-29T09:17:54;22.60;99.90
22235;DHT22;11286;45.596;5.284;2023-05-29T09:20:21;22.70;99.90
22235;DHT22;11286;45.596;5.284;2023-05-29T09:23:04;22.90;99.90
22235;DHT22;11286;45.596;5.284;2023-05-29T09:25:31;23.10;99.90
22235;DHT22;11286;45.596;5.284;2023-05-29T09:28:03;23.10;99.90
22235;DHT22;11286;45.596;5.284;2023-05-29T09:30:39;22.90;99.90
22235;DHT22;11286;45.596;5.284;2023-05-29T09:33:07;23.00;99.90
22235;DHT22;11286;45.596;5.284;2023-05-29T09:37:59;23.40;99.90
22235;DHT22;11286;45.596;5.284;2023-05-29T09:40:25;23.40;99.90
22235;DHT22;11286;45.596;5.284;2023-05-29T09:42:50;23.40;99.90
22235;DHT22;11286;45.596;5.284;2023-05-29T09:45:20;23.60;99.90
22235;DHT22;11286;45.596;5.284;2023-05-29T09:47:47;23.70;99.90
22235;DHT22;11286;45.596;5.284;2023-05-29T09:50:19;23.90;99.90
22235;DHT22;11286;45.596;5.284;2023-05-29T09:52:48;23.70;99.90
22235;DHT22;11286;45.596;5.284;2023-05-29T09:55:20;23.60;99.90
22235;DHT22;11286;45.596;5.284;2023-05-29T09:57:47;23.90;99.90
22235;DHT22;11286;45.596;5.284;2023-05-29T10:00:16;23.70;99.90
22235;DHT22;11286;45.596;5.284;2023-05-29T10:02:42;23.70;99.90
22235;DHT22;11286;45.596;5.284;2023-05-29T10:05:09;23.90;99.90
22235;DHT22;11286;45.596;5.284;2023-05-29T10:07:37;23.90;99.90
22235;DHT22;11286;45.596;5.284;2023-05-29T10:10:05;23.60;99.90
22235;DHT22;11286;45.596;5.284;2023-05-29T10:12:36;23.70;99.90
22235;DHT22;11286;45.596;5.284;2023-05-29T10:15:02;23.90;99.90
22235;DHT22;11286;45.596;5.284;2023-05-29T10:17:33;24.10;99.90
22235;DHT22;11286;45.596;5.284;2023-05-29T10:20:02;24.10;99.90
22235;DHT22;11286;45.596;5.284;2023-05-29T10:22:31;24.20;99.90
22235;DHT22;11286;45.596;5.284;2023-05-29T10:24:58;24.10;99.90
22235;DHT22;11286;45.596;5.284;2023-05-29T10:27:25;24.30;99.90
22235;DHT22;11286;45.596;5.284;2023-05-29T10:30:11;24.20;99.90
22235;DHT22;11286;45.596;5.284;2023-05-29T10:33:06;24.50;99.90
22235;DHT22;11286;45.596;5.284;2023-05-29T10:35:53;24.70;99.90
22235;DHT22;11286;45.596;5.284;2023-05-29T10:38:21;24.90;99.90
22235;DHT22;11286;45.596;5.284;2023-05-29T10:40:47;24.80;99.90
22235;DHT22;11286;45.596;5.284;2023-05-29T10:43:32;24.70;99.90
22235;DHT22;11286;45.596;5.284;2023-05-29T10:45:58;24.60;99.90
22235;DHT22;11286;45.596;5.284;2023-05-29T10:50:54;24.90;99.90
22235;DHT22;11286;45.596;5.284;2023-05-29T10:53:31;24.90;99.90
22235;DHT22;11286;45.596;5.284;2023-05-29T10:55:59;24.70;99.90
22235;DHT22;11286;45.596;5.284;2023-05-29T10:58:25;24.50;99.90
22235;DHT22;11286;45.596;5.284;2023-05-29T11:00:54;24.80;99.90
22235;DHT22;11286;45.596;5.284;2023-05-29T11:03:23;25.20;99.90
22235;DHT22;11286;45.596;5.284;2023-05-29T11:06:04;25.40;99.90
22235;DHT22;11286;45.596;5.284;2023-05-29T11:08:47;25.50;99.90
22235;DHT22;11286;45.596;5.284;2023-05-29T11:11:31;25.60;99.90
22235;DHT22;11286;45.596;5.284;2023-05-29T11:14:06;25.70;99.90
22235;DHT22;11286;45.596;5.284;2023-05-29T11:18:59;25.40;99.90
22235;DHT22;11286;45.596;5.284;2023-05-29T11:21:37;25.60;99.90
22235;DHT22;11286;45.596;5.284;2023-05-29T11:24:05;25.70;99.90
22235;DHT22;11286;45.596;5.284;2023-05-29T11:26:32;25.70;99.90
22235;DHT22;11286;45.596;5.284;2023-05-29T11:29:03;25.90;99.90
22235;DHT22;11286;45.596;5.284;2023-05-29T11:31:32;25.70;99.90
22235;DHT22;11286;45.596;5.284;2023-05-29T11:34:00;25.60;99.90
22235;DHT22;11286;45.596;5.284;2023-05-29T11:36:29;26.00;99.90
22235;DHT22;11286;45.596;5.284;2023-05-29T11:38:56;25.80;99.90
22235;DHT22;11286;45.596;5.284;2023-05-29T11:41:21;25.90;99.90
22235;DHT22;11286;45.596;5.284;2023-05-29T11:44:01;25.80;99.90
22235;DHT22;11286;45.596;5.284;2023-05-29T11:46:28;25.80;99.90
22235;DHT22;11286;45.596;5.284;2023-05-29T11:48:56;26.00;99.90
22235;DHT22;11286;45.596;5.284;2023-05-29T11:51:22;26.10;99.90
22235;DHT22;11286;45.596;5.284;2023-05-29T11:53:48;26.50;99.90
22235;DHT22;11286;45.596;5.284;2023-05-29T11:56:14;26.70;99.90
22235;DHT22;11286;45.596;5.284;2023-05-29T11:58:40;26.70;99.90
22235;DHT22;11286;45.596;5.284;2023-05-29T12:01:07;26.90;99.90
22235;DHT22;11286;45.596;5.284;2023-05-29T12:03:40;26.90;99.90
22235;DHT22;11286;45.596;5.284;2023-05-29T12:06:06;26.90;99.90
22235;DHT22;11286;45.596;5.284;2023-05-29T12:08:33;26.90;99.90
22235;DHT22;11286;45.596;5.284;2023-05-29T12:10:58;27.00;99.90
22235;DHT22;11286;45.596;5.284;2023-05-29T12:13:24;27.40;99.90
22235;DHT22;11286;45.596;5.284;2023-05-29T12:15:53;27.10;99.90
22235;DHT22;11286;45.596;5.284;2023-05-29T12:18:20;26.80;99.90
22235;DHT22;11286;45.596;5.284;2023-05-29T12:20:46;26.80;99.90
22235;DHT22;11286;45.596;5.284;2023-05-29T12:23:11;26.80;99.90
22235;DHT22;11286;45.596;5.284;2023-05-29T12:25:37;27.40;99.90
22235;DHT22;11286;45.596;5.284;2023-05-29T12:28:03;27.90;99.90
22235;DHT22;11286;45.596;5.284;2023-05-29T12:30:29;28.20;99.90
22235;DHT22;11286;45.596;5.284;2023-05-29T12:32:55;28.40;99.90
22235;DHT22;11286;45.596;5.284;2023-05-29T12:35:25;29.00;99.90
22235;DHT22;11286;45.596;5.284;2023-05-29T12:37:56;29.50;99.90
22235;DHT22;11286;45.596;5.284;2023-05-29T12:40:22;29.70;99.90
22235;DHT22;11286;45.596;5.284;2023-05-29T12:42:54;29.30;99.90
22235;DHT22;11286;45.596;5.284;2023-05-29T12:45:23;29.30;99.90
22235;DHT22;11286;45.596;5.284;2023-05-29T12:47:53;29.60;99.90
22235;DHT22;11286;45.596;5.284;2023-05-29T12:50:27;30.00;99.90
22235;DHT22;11286;45.596;5.284;2023-05-29T12:53:09;29.90;99.90
22235;DHT22;11286;45.596;5.284;2023-05-29T12:55:42;30.20;99.90
22235;DHT22;11286;45.596;5.284;2023-05-29T12:58:10;30.10;99.90
22235;DHT22;11286;45.596;5.284;2023-05-29T13:00:38;30.40;99.90
22235;DHT22;11286;45.596;5.284;2023-05-29T13:03:04;30.50;99.90
22235;DHT22;11286;45.596;5.284;2023-05-29T13:05:31;30.20;99.90
22235;DHT22;11286;45.596;5.284;2023-05-29T13:07:57;29.90;99.90
22235;DHT22;11286;45.596;5.284;2023-05-29T13:10:25;30.30;99.90
22235;DHT22;11286;45.596;5.284;2023-05-29T13:12:52;30.80;99.90
22235;DHT22;11286;45.596;5.284;2023-05-29T13:15:23;30.90;99.90
22235;DHT22;11286;45.596;5.284;2023-05-29T13:17:49;31.10;99.90
22235;DHT22;11286;45.596;5.284;2023-05-29T13:20:16;31.30;99.90
22235;DHT22;11286;45.596;5.284;2023-05-29T13:22:43;30.90;99.90
22235;DHT22;11286;45.596;5.284;2023-05-29T13:25:11;30.70;99.90
22235;DHT22;11286;45.596;5.284;2023-05-29T13:27:39;30.50;99.90
22235;DHT22;11286;45.596;5.284;2023-05-29T13:30:06;30.70;99.90
22235;DHT22;11286;45.596;5.284;2023-05-29T13:32:32;30.90;99.90
22235;DHT22;11286;45.596;5.284;2023-05-29T13:34:58;30.60;99.90
22235;DHT22;11286;45.596;5.284;2023-05-29T13:37:24;30.50;99.90
22235;DHT22;11286;45.596;5.284;2023-05-29T13:39:49;30.70;99.90
22235;DHT22;11286;45.596;5.284;2023-05-29T13:42:17;31.00;99.90
22235;DHT22;11286;45.596;5.284;2023-05-29T13:44:42;30.80;99.90
22235;DHT22;11286;45.596;5.284;2023-05-29T13:47:08;30.60;99.90
22235;DHT22;11286;45.596;5.284;2023-05-29T13:49:34;30.60;99.90
22235;DHT22;11286;45.596;5.284;2023-05-29T13:52:01;30.60;99.90
22235;DHT22;11286;45.596;5.284;2023-05-29T13:54:27;30.60;99.90
22235;DHT22;11286;45.596;5.284;2023-05-29T13:56:56;29.90;99.90
22235;DHT22;11286;45.596;5.284;2023-05-29T13:59:23;29.80;99.90
22235;DHT22;11286;45.596;5.284;2023-05-29T14:01:49;30.20;99.90
22235;DHT22;11286;45.596;5.284;2023-05-29T14:04:15;30.50;99.90
22235;DHT22;11286;45.596;5.284;2023-05-29T14:06:40;30.60;99.90
22235;DHT22;11286;45.596;5.284;2023-05-29T14:09:06;30.50;99.90
22235;DHT22;11286;45.596;5.284;2023-05-29T14:11:38;30.40;99.90
22235;DHT22;11286;45.596;5.284;2023-05-29T14:14:04;30.60;99.90
22235;DHT22;11286;45.596;5.284;2023-05-29T14:16:31;30.50;99.90
22235;DHT22;11286;45.596;5.284;2023-05-29T14:18:57;30.50;99.90
22235;DHT22;11286;45.596;5.284;2023-05-29T14:21:23;30.40;99.90
22235;DHT22;11286;45.596;5.284;2023-05-29T14:23:49;30.50;99.90
22235;DHT22;11286;45.596;5.284;2023-05-29T14:26:14;30.60;99.90
22235;DHT22;11286;45.596;5.284;2023-05-29T14:28:40;30.90;99.90
22235;DHT22;11286;45.596;5.284;2023-05-29T14:31:06;30.70;99.90
22235;DHT22;11286;45.596;5.284;2023-05-29T14:33:32;30.70;99.90
22235;DHT22;11286;45.596;5.284;2023-05-29T14:35:57;30.80;99.90
22235;DHT22;11286;45.596;5.284;2023-05-29T14:38:23;30.30;99.90
22235;DHT22;11286;45.596;5.284;2023-05-29T14:40:49;30.20;99.90
22235;DHT22;11286;45.596;5.284;2023-05-29T14:43:15;30.20;99.90
22235;DHT22;11286;45.596;5.284;2023-05-29T14:45:40;30.30;99.90
22235;DHT22;11286;45.596;5.284;2023-05-29T14:48:06;30.50;99.90
22235;DHT22;11286;45.596;5.284;2023-05-29T14:50:32;30.30;99.90
22235;DHT22;11286;45.596;5.284;2023-05-29T14:52:57;30.80;99.90
22235;DHT22;11286;45.596;5.284;2023-05-29T14:55:23;30.40;99.90
22235;DHT22;11286;45.596;5.284;2023-05-29T14:57:49;30.20;99.90
22235;DHT22;11286;45.596;5.284;2023-05-29T15:00:14;30.40;99.90
22235;DHT22;11286;45.596;5.284;2023-05-29T15:02:40;30.10;99.90
22235;DHT22;11286;45.596;5.284;2023-05-29T15:05:06;30.10;99.90
22235;DHT22;11286;45.596;5.284;2023-05-29T15:07:32;30.50;99.90
22235;DHT22;11286;45.596;5.284;2023-05-29T15:10:02;30.50;99.90
22235;DHT22;11286;45.596;5.284;2023-05-29T15:12:29;30.40;99.90
22235;DHT22;11286;45.596;5.284;2023-05-29T15:14:54;30.20;99.90
22235;DHT22;11286;45.596;5.284;2023-05-29T15:17:20;30.50;99.90
22235;DHT22;11286;45.596;5.284;2023-05-29T15:19:46;30.50;99.90
22235;DHT22;11286;45.596;5.284;2023-05-29T15:22:11;30.20;99.90
22235;DHT22;11286;45.596;5.284;2023-05-29T15:24:37;30.40;99.90
22235;DHT22;11286;45.596;5.284;2023-05-29T15:27:03;30.20;99.90
22235;DHT22;11286;45.596;5.284;2023-05-29T15:29:35;29.90;99.90
22235;DHT22;11286;45.596;5.284;2023-05-29T15:32:02;29.80;99.90
22235;DHT22;11286;45.596;5.284;2023-05-29T15:34:28;29.70;99.90
22235;DHT22;11286;45.596;5.284;2023-05-29T15:36:54;29.50;99.90
22235;DHT22;11286;45.596;5.284;2023-05-29T15:39:20;29.30;99.90
22235;DHT22;11286;45.596;5.284;2023-05-29T15:41:46;29.30;99.90
22235;DHT22;11286;45.596;5.284;2023-05-29T15:44:12;29.50;99.90
22235;DHT22;11286;45.596;5.284;2023-05-29T15:46:38;29.20;99.90